My Meet Scores
Sabrina Crane, Flips Gymnastics North Shore - MyMeetScores.com
Top100 | Top Teams | Upcoming Meets | Completed Meets | Latest | Add Scores | Help| Support | Bookmark and Share

Sabrina Crane, Flips Gymnastics North Shore
Personal Bests
LevelVault BarsBeamFloorAA
39.3259.125 8.8009.20035.475
49.0509.500 8.7509.12536.000
59.0509.000 8.7259.00034.925
XG9.4509.450 9.4009.40037.375
Meet Scores
Date Meet Team Session Level Division Vault Bars Beam Floor AA
2021-03-18 Level 5 & Xcel Gold State Flips Gymnastics North Shore 7 XG Jr D 9.450 6 9.400 7 9.250 9T 9.275 10T 37.375 2T
2021-02-26 Kinetic Classic 2021 Flips Gymnastics North Shore 02 XG Older 8.825 4 9.450 1 9.400 2T 9.400 8 37.075 1
2021-02-19 BIG Classic 2021 Flips Gymnastics North Shore 2A XG Senior A 9.400 1T 9.300 3 8.650 10 9.300 6T 36.650 3
2021-01-14 2021 Bravo Classic Flips Gymnastics North Shore 7 XG Jr 9.450 3 9.300 5 9.200 5T 9.350 5T 37.300 3T
2020-02-28 MEGA Spring Invite 2020 VHG 1 5 Senior 8.900 3T 8.650 4T 8.725 9 8.650 5T 34.925 5
2020-02-13 Presidential Classic Vernon Hills W10 5 L5 w10 g2 8.600 4 8.700 4 6.975 12 9.000 2T 33.275 6
2020-01-24 King Arthur Invitational VHG 5B 5 SR B 8.725 5 8.750 3 8.300 11T 8.775 4T 34.550 4
2020-01-10 St Jude Benefit Meet VHG 1A 5 Sr A 8.600 9T 9.000 6 7.975 14 8.850 5 34.425 7
2019-12-20 2019 Women's Hawaiian Pineapple Classic VHG 2A 5 Age 11 9.050 2 8.250 6 7.500 8 9.000 2T 33.800 6
2019-12-06 Ultimate Wish Classic VHG 6 5 JR 8.600 8 8.600 6 8.700 6T 8.850 5 34.750 6
2019-03-22 Illinois Gymnastics State Championships Buffalo Grove Gymn Center 5 4 JR D 9.050 7T 9.400 10* 8.625 24 8.925 16 36.000 16T
2019-03-08 Lucky Invite Buffalo Grove Gymn Center A07 4 Sr 8.550 8T 9.500 3 8.550 17 8.575 16 35.175 10
2019-03-01 2019 MEGA Spring Invite Buffalo Grove Gymn Center All 4 All Ages 8.500 82T 9.075 22T 8.050 126 9.025 46T 34.650 74T
2019-02-01 Wisconsin Dells Gymnastics Vacation Classic Buffalo Grove Gymn Center B7 4 Jr B 8.500 6 8.850 3 8.450 8 8.875 4 34.675 5
2018-12-14 Hawaiian Pineapple Classic Buffalo Grove Gymn Center 1B 4 Age10 8.925 3 9.125 7 8.750 14 8.750 4 35.550 5
2018-11-17 SCGA Classic Buffalo Grove Gymn Center 4 4 junior B 8.650 4 9.025 1 8.700 5 9.125 3 35.500 2
2018-03-08 Level 4 & 5 State Buffalo Grove Gymn Center All 4 Yh D 8.050 26 8.150 22 7.600 27 8.775 19 32.575 28
2018-02-17 Women's Midwest Open Buffalo Grove Gymn Center 12 4 Jr B 8.700 12 9.025 8 8.300 15 8.650 11T 34.675 12
2018-02-08 Hal's Harley-Davidson Invite Womens Buffalo Grove Gymn Center T09 4 9 b 8.200 8 8.625 5 8.625 13 8.800 10 34.250 7
2017-12-14 2017 Women's Hawaiian Pineapple Classic Buffalo Grove Gymn Center 1A 4 Age9 8.400 10 8.650 6T 7.500 21T 8.850 9T 33.400 14
2017-12-01 Ultimate Wish Classic Buffalo Grove Gymn Center 10 4 Jr C 8.500 10 7.550 15 8.300 16 8.275 17 32.625 16
2017-03-30 2017 Illinois Level 3 & 5 State Buffalo Grove Gymn Center All 3 Yh E 9.325 17T 8.800 22T 8.200 30 8.900 17 35.225 23
2017-03-10 Lucky Invitational Buffalo Grove Gymn Center B01 3 Jr B 8.500 11T 8.975 9T 8.800 5T 9.200 7T 35.475 10
2017-02-17 Midwest Open Buffalo Grove Gymn Center 2A 3 JR B 8.900 9T 8.850 5 8.550 9T 9.000 9T 35.300 8
2017-01-27 Circle Of Stars Gymnastics Invitational Buffalo Grove Gymn Center D25 3 Jr B 8.750 19 8.800 8 8.350 17 8.350 20 34.250 16
2017-01-20 80s Throwback Classic Buffalo Grove Gymn Center 2 3 Junior 8.900 5T 8.725 4 8.000 12 8.825 10 34.450 11
2016-12-15 2016 Hawaiian Pineapple Sanction Buffalo Grove Gymn Center 5B 3 Age 8 8.650 25 9.125 3 7.850 24 8.400 20T 34.025 16
2016-12-02 Ultimate Wish Classic Buffalo Grove Gymn Center 12 3 Junior 8.800 14 8.550 14T 8.500 9T 8.175 17 34.025 16
Get your scores on
a t-shirt, pin, or hoodie